logo
Search for airport 
image banner adimage banner adimage banner ad
image banner ad

CYWL - Williams Lake

Located in , Canada

ICAO - CYWL, IATA - YWL

Data provided by Airmate  

General information

Coordinates: N52°11'0" W122°3'16"
Elevation is 3088 feet MSL.
Magnetic variation is 17.3833° East
View others Airports in British Columbia

Operational data

Special qualification required
Current time UTC:
Current local time:
Weather
METAR: CYWL 231600Z 12012KT 10SM OVC002 M03/M03 A3011 RMK ST8 SLP241
TAF: TAF AMD CYWL 231542Z 2315/2401 13012KT P6SM BKN002 TEMPO 2315/2318 SCT005 FM231800 13008KT P6SM SCT030 TEMPO 2318/2322 BKN030 FM232200 12008KT P6SM -SN FEW020 BKN050 BECMG 2323/2401 2SM -SN BKN020 OVC050 RMK NXT FCST BY 231900Z
View NOTAMs / SUP AIP / TFR affecting this airport [VIEW]
Communications frequencies: [VIEW]

Runways:

RWY identifierQFULength (ft)Width (ft)SurfaceLDA (ft)
12134°6966150ASPH6966
30314°6966150ASPH6966

Airport contact information

Address: Canada

Satellite view of CYWL